WetterOnline ( https://www.wetteronline.de )

Wetter aktuell Fehmarn

Aktuelles Wetter: Westermarkelsdorf (9m)

6-stündlich | Neueste Meldungen
Ortszeit Temperatur Wetter
Sa, 24.02. 13:00 7.3° C leicht bewölkt
Sa, 24.02. 7:00 2.7° C wolkenlos
Sa, 24.02. 1:00 4.2° C wolkenlos
Fr, 23.02. 19:00 6.9° C bewölkt
Fr, 23.02. 13:00 7.1° C leicht bewölkt
Fr, 23.02. 7:00 5.9° C bewölkt
Fr, 23.02. 1:00 9.2° C bedeckt
Do, 22.02. 19:00 9.2° C bedeckt
Ortszeit Temperatur Wetter
Sa, 24.02. 13:10 6.9° C bedeckt
Sa, 24.02. 13:00 7.3° C leicht bewölkt
Sa, 24.02. 12:50 7.3° C wolkig
Sa, 24.02. 12:40 7.5° C bewölkt
Sa, 24.02. 12:30 7.2° C wolkig
Sa, 24.02. 12:20 7.2° C wolkig
Sa, 24.02. 12:00 6.7° C wolkig
Sa, 24.02. 11:30 7.1° C wolkig
Sa, 24.02. 11:00 6.2° C wolkig
Sa, 24.02. 10:30 5.5° C wolkenlos
Ortszeit Relative Feuchte Sichtweite
Sa, 24.02. 13:00 73% 45 km
Sa, 24.02. 7:00 90% 45 km
Sa, 24.02. 1:00 83% 60 km
Fr, 23.02. 19:00 71% 65 km
Fr, 23.02. 13:00 69% 50 km
Fr, 23.02. 7:00 77% 50 km
Fr, 23.02. 1:00 92% 65 km
Do, 22.02. 19:00 89% 40 km
Ortszeit Relative Feuchte Sichtweite
Sa, 24.02. 13:10 77% -
Sa, 24.02. 13:00 73% 45 km
Sa, 24.02. 12:50 73% -
Sa, 24.02. 12:40 74% -
Sa, 24.02. 12:30 75% 40 km
Sa, 24.02. 12:20 75% -
Sa, 24.02. 12:00 76% 60 km
Sa, 24.02. 11:30 77% 50 km
Sa, 24.02. 11:00 78% 55 km
Sa, 24.02. 10:30 79% 55 km
Ortszeit Niederschlagsmenge Niederschlagsart
Sa, 24.02. 13:00 0.0 l/m2 in 6 Std. -
Sa, 24.02. 7:00 0.0 l/m2 in 12 Std. -
Sa, 24.02. 1:00 0.0 l/m2 in 6 Std. -
Fr, 23.02. 19:00 0.0 l/m2 in 12 Std. -
Fr, 23.02. 13:00 0.0 l/m2 in 6 Std. -
Fr, 23.02. 7:00 1 l/m2 in 12 Std. Regen
Fr, 23.02. 1:00 0.9 l/m2 in 6 Std. Regen
Do, 22.02. 19:00 0.4 l/m2 in 12 Std. -
Ortszeit Niederschlagsmenge Niederschlagsart
Sa, 24.02. 13:10 keine Meldung -
Sa, 24.02. 13:00 0.0 l/m2 in 1 Std. -
Sa, 24.02. 12:50 keine Meldung -
Sa, 24.02. 12:40 keine Meldung -
Sa, 24.02. 12:30 0.0 l/m2 in 30 Min -
Sa, 24.02. 12:20 keine Meldung -
Sa, 24.02. 12:00 0.0 l/m2 in 1 Std. -
Sa, 24.02. 11:30 0.0 l/m2 in 30 Min -
Sa, 24.02. 11:00 0.0 l/m2 in 1 Std. -
Sa, 24.02. 10:30 0.0 l/m2 in 30 Min -
Ortszeit Stärke Spitze Richtung
km/h Bft. km/h Grad Sektor
Sa, 24.02. 13:00 7 2 25 150° SO
Sa, 24.02. 7:00 15 3 31 160° S
Sa, 24.02. 1:00 14 3 32 160° S
Fr, 23.02. 19:00 22 4 43 160° S
Fr, 23.02. 13:00 30 5 65 220° SW
Fr, 23.02. 7:00 43 6 87 220° SW
Fr, 23.02. 1:00 31 5 54 170° S
Do, 22.02. 19:00 25 4 40 140° SO
Ortszeit Stärke Spitze Richtung
km/h Bft. km/h Grad Sektor
Sa, 24.02. 13:10 13 3 - 170° S
Sa, 24.02. 13:00 7 2 18 150° SO
Sa, 24.02. 12:50 7 2 - 150° SO
Sa, 24.02. 12:40 7 2 - 160° S
Sa, 24.02. 12:30 7 2 18 170° S
Sa, 24.02. 12:20 7 2 - 170° S
Sa, 24.02. 12:00 11 2 25 180° S
Sa, 24.02. 11:30 9 2 17 180° S
Sa, 24.02. 11:00 11 2 25 180° S
Sa, 24.02. 10:30 14 3 25 170° S
Ortszeit Untergrenze Bedeckung Gattung
total tief tief mittel hoch
Sa, 24.02. 13:00 2100 m 8/8 1/8 - - -
Sa, 24.02. 7:00 - 0/8 0/8 - - -
Sa, 24.02. 1:00 - 0/8 0/8 - - -
Fr, 23.02. 19:00 1500 m 7/8 7/8 - - -
Fr, 23.02. 13:00 1350 m 4/8 4/8 - - -
Fr, 23.02. 7:00 840 m 8/8 6/8 - - -
Fr, 23.02. 1:00 900 m 8/8 8/8 - - -
Do, 22.02. 19:00 780 m 8/8 8/8 - - -
Ortszeit Bedeckungsgrad in Achtel und Wolkenuntergrenze
Sa, 24.02. 13:10 8
Sa, 24.02. 13:00 1(2100m) 8(6600m) 8(7500m)
Sa, 24.02. 12:50 1(2100m) 8(6600m) 8(7500m)
Sa, 24.02. 12:40 7
Sa, 24.02. 12:30 2(3900m) 5(6900m) 5(8100m)
Sa, 24.02. 12:20 2(3900m) 5(6900m) 5(8100m)
Sa, 24.02. 12:00 4(2100m) 7(7500m)
Sa, 24.02. 11:30 1(1800m) 8(5400m) 8(6600m)
Sa, 24.02. 11:00 7(6000m)
Sa, 24.02. 10:30 keine Wolken
Ortszeit Luftdruck NN (hPa) Tendenz (hPa in 3 Std.)
Sa, 24.02. 13:00 1000 + 0,5
Sa, 24.02. 7:00 998 + 0,6
Sa, 24.02. 1:00 997 + 0,9
Fr, 23.02. 19:00 994 + 1,1
Fr, 23.02. 13:00 992 + 3,2
Fr, 23.02. 7:00 985 + 4,1
Fr, 23.02. 1:00 976 - 2,6
Do, 22.02. 19:00 983 - 4,1
Ortszeit Luftdruck NN (hPa) Tendenz (hPa in 3 Std.)
Sa, 24.02. 13:10 1000 keine Meldung
Sa, 24.02. 13:00 1000 + 0,5
Sa, 24.02. 12:50 1000 keine Meldung
Sa, 24.02. 12:40 999 keine Meldung
Sa, 24.02. 12:30 1000 + 0,6
Sa, 24.02. 12:20 1000 keine Meldung
Sa, 24.02. 12:00 1000 + 0,9
Sa, 24.02. 11:30 999 + 0,9
Sa, 24.02. 11:00 999 + 0,9
Sa, 24.02. 10:30 999 + 0,8
Ortszeit Schneehöhe (cm)
Sa, 24.02. 13:00 0
Sa, 24.02. 7:00 0
Sa, 24.02. 1:00 0
Fr, 23.02. 19:00 0
Fr, 23.02. 13:00 0
Fr, 23.02. 7:00 0
Fr, 23.02. 1:00 0
Do, 22.02. 19:00 0
Ortszeit Schneehöhe (cm)
Sa, 24.02. 13:10 -
Sa, 24.02. 13:00 0
Sa, 24.02. 12:50 0
Sa, 24.02. 12:40 -
Sa, 24.02. 12:30 0
Sa, 24.02. 12:20 0
Sa, 24.02. 12:00 0
Sa, 24.02. 11:30 0
Sa, 24.02. 11:00 0
Sa, 24.02. 10:30 0
Link zu dieser Seite / Seite empfehlen

Das Wetter in ...